createdAt,value
2019-01-23T00:04:51.609Z,-4.37
2019-01-23T00:09:57.586Z,-4.40
2019-01-23T00:15:03.867Z,-4.45
2019-01-23T00:20:09.750Z,-4.39
2019-01-23T00:25:15.557Z,-4.40
2019-01-23T00:30:21.514Z,-4.38
2019-01-23T00:35:27.611Z,-4.44
2019-01-23T00:40:33.301Z,-4.43
2019-01-23T00:45:39.170Z,-4.43
2019-01-23T00:50:44.903Z,-4.42
2019-01-23T00:55:50.748Z,-4.46
2019-01-23T01:00:56.432Z,-4.47
2019-01-23T01:06:02.442Z,-4.53
2019-01-23T01:11:08.122Z,-4.50
2019-01-23T01:16:13.850Z,-4.60
2019-01-23T01:21:19.539Z,-4.68
2019-01-23T01:26:25.340Z,-4.70
2019-01-23T01:31:31.342Z,-4.67
2019-01-23T01:36:37.328Z,-4.67
2019-01-23T01:41:43.496Z,-4.61
2019-01-23T01:46:49.586Z,-4.67
2019-01-23T01:51:55.319Z,-4.66
2019-01-23T01:57:01.013Z,-4.67
2019-01-23T02:02:06.751Z,-4.74
2019-01-23T02:07:12.608Z,-4.70
2019-01-23T02:12:18.389Z,-4.58
2019-01-23T02:17:24.139Z,-4.64
2019-01-23T02:22:30.087Z,-4.67
2019-01-23T02:27:35.979Z,-4.77
2019-01-23T02:32:41.977Z,-4.64
2019-01-23T02:37:48.039Z,-4.71
2019-01-23T02:42:53.821Z,-4.68
2019-01-23T02:48:00.289Z,-4.69
2019-01-23T02:53:06.494Z,-4.68
2019-01-23T02:58:12.516Z,-4.71
2019-01-23T03:03:18.255Z,-4.76
2019-01-23T03:08:24.020Z,-4.71
2019-01-23T03:13:29.950Z,-4.68
2019-01-23T03:18:35.688Z,-4.75
2019-01-23T03:23:41.517Z,-4.71
2019-01-23T03:28:47.593Z,-4.76
2019-01-23T03:33:53.486Z,-4.90
2019-01-23T03:38:59.268Z,-4.83
2019-01-23T03:44:05.560Z,-4.82
2019-01-23T03:49:11.738Z,-4.81
2019-01-23T03:54:17.641Z,-4.85
2019-01-23T03:59:23.344Z,-4.83
2019-01-23T04:04:29.148Z,-4.80
2019-01-23T04:09:35.335Z,-4.90
2019-01-23T04:14:41.019Z,-4.89
2019-01-23T04:19:47.113Z,-4.83
2019-01-23T04:24:52.864Z,-4.78
2019-01-23T04:29:58.568Z,-4.81
2019-01-23T04:35:05.967Z,-4.77
2019-01-23T04:40:13.043Z,-4.78
2019-01-23T04:45:18.745Z,-4.87
2019-01-23T04:50:24.510Z,-4.87
2019-01-23T04:55:30.256Z,-4.94
2019-01-23T05:00:36.289Z,-4.98
2019-01-23T05:05:42.152Z,-4.93
2019-01-23T05:10:48.020Z,-4.99
2019-01-23T05:15:53.732Z,-5.06
2019-01-23T05:20:59.726Z,-5.00
2019-01-23T05:26:06.598Z,-5.10
2019-01-23T05:31:12.484Z,-5.10
2019-01-23T05:36:19.411Z,-5.17
2019-01-23T05:41:25.145Z,-5.19
2019-01-23T05:46:31.120Z,-5.17
2019-01-23T05:51:37.021Z,-5.30
2019-01-23T05:56:42.727Z,-5.33
2019-01-23T06:01:48.580Z,-5.38
2019-01-23T06:06:54.330Z,-5.35
2019-01-23T06:12:00.199Z,-5.40
2019-01-23T06:17:05.898Z,-5.38
2019-01-23T06:22:11.643Z,-5.33
2019-01-23T06:27:17.328Z,-5.37
2019-01-23T06:32:23.188Z,-5.35
2019-01-23T06:37:29.152Z,-5.44
2019-01-23T06:42:35.058Z,-5.53
2019-01-23T06:47:42.047Z,-5.49
2019-01-23T06:52:47.789Z,-5.45
2019-01-23T06:57:53.487Z,-5.60
2019-01-23T07:02:59.236Z,-5.50
2019-01-23T07:08:06.014Z,-5.45
2019-01-23T07:13:12.895Z,-5.47
2019-01-23T07:18:18.708Z,-5.45
2019-01-23T07:23:27.319Z,-5.54
2019-01-23T07:28:33.179Z,-5.55
2019-01-23T07:33:38.927Z,-5.53
2019-01-23T07:38:44.692Z,-5.37
2019-01-23T07:43:50.423Z,-5.26
2019-01-23T07:48:56.131Z,-5.23
2019-01-23T07:54:01.856Z,-5.14
2019-01-23T07:59:07.937Z,-4.99
2019-01-23T08:04:13.852Z,-5.00
2019-01-23T08:09:19.834Z,-4.88
2019-01-23T08:14:25.723Z,-4.97
2019-01-23T08:19:31.772Z,-4.96
2019-01-23T08:24:37.748Z,-4.83
2019-01-23T08:29:43.611Z,-4.83
2019-01-23T08:34:50.606Z,-4.68
2019-01-23T08:39:56.670Z,-4.64
2019-01-23T08:45:02.760Z,-4.54
2019-01-23T08:50:14.191Z,-4.38
2019-01-23T08:55:19.926Z,-4.26
2019-01-23T09:00:25.615Z,-4.09
2019-01-23T09:05:31.619Z,-3.98
2019-01-23T09:10:37.371Z,-3.84
2019-01-23T09:15:43.246Z,-3.72
2019-01-23T09:20:49.225Z,-3.61
2019-01-23T09:25:55.138Z,-3.53
2019-01-23T09:31:09.691Z,-3.41
2019-01-23T09:36:30.521Z,-3.38
2019-01-23T09:41:59.095Z,-3.26
2019-01-23T09:47:19.501Z,-3.18
2019-01-23T09:52:49.619Z,-3.00
2019-01-23T09:57:55.725Z,-2.94
2019-01-23T10:03:01.621Z,-2.85
2019-01-23T10:08:07.363Z,-2.70
2019-01-23T10:13:13.094Z,-2.49
2019-01-23T10:18:19.173Z,-2.36
2019-01-23T10:23:25.151Z,-2.29
2019-01-23T10:28:31.124Z,-2.17
2019-01-23T10:33:37.140Z,-1.93
2019-01-23T10:38:43.141Z,-1.89
2019-01-23T10:43:49.148Z,-1.76
2019-01-23T10:48:55.119Z,-1.59
2019-01-23T10:54:01.107Z,-1.64
2019-01-23T10:59:07.128Z,-1.56
2019-01-23T11:04:13.108Z,-1.41
2019-01-23T11:09:19.157Z,-1.38
2019-01-23T11:14:25.277Z,-1.14
2019-01-23T11:19:31.317Z,-1.34
2019-01-23T11:24:38.678Z,-1.53
2019-01-23T11:29:45.165Z,-1.49
2019-01-23T11:34:51.360Z,-1.41
2019-01-23T11:39:57.351Z,-1.53
2019-01-23T11:45:03.832Z,-1.54
2019-01-23T11:50:12.911Z,-1.54
2019-01-23T11:55:18.878Z,-1.40
2019-01-23T12:00:26.970Z,-1.41
2019-01-23T12:05:33.045Z,-1.38
2019-01-23T12:10:39.174Z,-1.33
2019-01-23T12:15:45.150Z,-1.34
2019-01-23T12:20:51.352Z,-1.45
2019-01-23T12:25:57.661Z,-1.37
2019-01-23T12:31:04.024Z,-1.37
2019-01-23T12:36:10.095Z,-1.21
2019-01-23T12:41:16.105Z,-1.21
2019-01-23T12:46:22.552Z,-1.09
2019-01-23T12:51:28.797Z,-1.12
2019-01-23T12:56:35.105Z,-1.19
2019-01-23T13:01:42.414Z,-1.19
2019-01-23T13:06:50.221Z,-1.17
2019-01-23T13:11:56.366Z,-1.20
2019-01-23T13:17:02.389Z,-1.08
2019-01-23T13:22:08.800Z,-1.14
2019-01-23T13:27:15.316Z,-1.26
2019-01-23T13:32:21.452Z,-1.23
2019-01-23T13:37:28.090Z,-1.29
2019-01-23T13:42:34.394Z,-1.46
2019-01-23T13:47:40.758Z,-1.41
2019-01-23T13:52:47.081Z,-1.42
2019-01-23T13:57:53.097Z,-1.51
2019-01-23T14:02:59.188Z,-1.51
2019-01-23T14:08:08.154Z,-1.58
2019-01-23T14:13:14.367Z,-1.60
2019-01-23T14:18:20.945Z,-1.58
2019-01-23T14:23:27.623Z,-1.76
2019-01-23T14:28:33.875Z,-1.81
2019-01-23T14:33:40.403Z,-1.78
2019-01-23T14:38:46.920Z,-1.89
2019-01-23T14:43:53.105Z,-1.94
2019-01-23T14:48:59.324Z,-2.07
2019-01-23T14:54:06.555Z,-2.17
2019-01-23T14:59:13.017Z,-2.27
2019-01-23T15:04:19.355Z,-2.37
2019-01-23T15:09:25.458Z,-2.41
2019-01-23T15:14:31.433Z,-2.54
2019-01-23T15:19:37.796Z,-2.59
2019-01-23T15:24:44.440Z,-2.63
2019-01-23T15:29:50.580Z,-2.74
2019-01-23T15:34:56.794Z,-2.84
2019-01-23T15:40:02.834Z,-2.83
2019-01-23T15:45:11.014Z,-2.90
2019-01-23T15:50:20.735Z,-2.89
2019-01-23T15:55:26.961Z,-2.93
2019-01-23T16:00:34.054Z,-2.97
2019-01-23T16:05:40.428Z,-3.02
2019-01-23T16:10:46.999Z,-3.13
2019-01-23T16:15:53.258Z,-3.17
2019-01-23T16:20:59.232Z,-3.15
2019-01-23T16:26:06.269Z,-3.18
2019-01-23T16:31:12.344Z,-3.23
2019-01-23T16:36:19.534Z,-3.20
2019-01-23T16:41:25.903Z,-3.22
2019-01-23T16:46:33.633Z,-3.32
2019-01-23T16:51:40.502Z,-3.37
2019-01-23T16:56:46.480Z,-3.41
2019-01-23T17:01:52.880Z,-3.39
2019-01-23T17:06:59.014Z,-3.43
2019-01-23T17:12:09.403Z,-3.44
2019-01-23T17:17:13.868Z,-3.47
2019-01-23T17:22:19.891Z,-3.52
2019-01-23T17:27:26.463Z,-3.53
2019-01-23T17:32:32.638Z,-3.55
2019-01-23T17:37:38.619Z,-3.56
2019-01-23T17:42:44.747Z,-3.52
2019-01-23T17:47:50.567Z,-3.63
2019-01-23T17:52:57.467Z,-3.63
2019-01-23T17:58:03.319Z,-3.66
2019-01-23T18:03:09.303Z,-3.66
2019-01-23T18:08:14.995Z,-3.62
2019-01-23T18:13:20.801Z,-3.69
2019-01-23T18:18:26.477Z,-3.67
2019-01-23T18:23:32.220Z,-3.69
2019-01-23T18:28:38.167Z,-3.72
2019-01-23T18:33:52.982Z,-3.73
2019-01-23T18:39:05.242Z,-3.77
2019-01-23T18:44:17.202Z,-3.78
2019-01-23T18:49:26.210Z,-3.85
2019-01-23T18:54:31.925Z,-3.83
2019-01-23T18:59:37.672Z,-3.84
2019-01-23T19:04:43.396Z,-3.88
2019-01-23T19:09:50.387Z,-3.85
2019-01-23T19:14:56.145Z,-3.87
2019-01-23T19:20:03.013Z,-3.95
2019-01-23T19:25:09.317Z,-3.91
2019-01-23T19:30:23.135Z,-3.96
2019-01-23T19:35:28.883Z,-3.90
2019-01-23T19:40:34.609Z,-4.06
2019-01-23T19:45:40.383Z,-4.03
2019-01-23T19:50:46.219Z,-3.95
2019-01-23T19:55:54.393Z,-3.96
2019-01-23T20:01:00.124Z,-3.97
2019-01-23T20:06:05.849Z,-3.99
2019-01-23T20:11:11.860Z,-3.99
2019-01-23T20:16:18.908Z,-4.02
2019-01-23T20:21:24.723Z,-4.06
2019-01-23T20:26:30.741Z,-3.98
2019-01-23T20:31:36.759Z,-4.04
2019-01-23T20:36:42.475Z,-4.19
2019-01-23T20:41:48.184Z,-4.15
2019-01-23T20:46:54.016Z,-4.25
2019-01-23T20:51:59.723Z,-4.18
2019-01-23T20:57:05.798Z,-4.29
2019-01-23T21:02:11.979Z,-4.36
2019-01-23T21:07:17.881Z,-4.31
2019-01-23T21:12:23.585Z,-4.40
2019-01-23T21:17:29.298Z,-4.42
2019-01-23T21:22:35.167Z,-4.48
2019-01-23T21:27:40.863Z,-4.54
2019-01-23T21:32:46.938Z,-4.51
2019-01-23T21:37:52.803Z,-4.57
2019-01-23T21:42:58.537Z,-4.61
2019-01-23T21:48:05.746Z,-4.60
2019-01-23T21:53:11.575Z,-4.68
2019-01-23T21:58:17.538Z,-4.65
2019-01-23T22:03:23.427Z,-4.74
2019-01-23T22:08:29.160Z,-4.78
2019-01-23T22:13:35.059Z,-4.82
2019-01-23T22:18:41.002Z,-4.88
2019-01-23T22:23:47.028Z,-4.86
2019-01-23T22:28:53.263Z,-4.92
2019-01-23T22:33:59.404Z,-4.98
2019-01-23T22:39:07.444Z,-5.04
2019-01-23T22:44:13.256Z,-5.16
2019-01-23T22:49:19.213Z,-5.18
2019-01-23T22:54:24.942Z,-5.22
2019-01-23T22:59:31.127Z,-5.21
2019-01-23T23:04:37.073Z,-5.21
2019-01-23T23:09:42.809Z,-5.19
2019-01-23T23:14:48.527Z,-5.22
2019-01-23T23:19:54.709Z,-5.20
2019-01-23T23:25:01.096Z,-5.24
2019-01-23T23:30:21.198Z,-5.20
2019-01-23T23:35:27.121Z,-5.23
2019-01-23T23:40:33.282Z,-5.21
2019-01-23T23:45:39.021Z,-5.27
2019-01-23T23:50:44.760Z,-5.34
2019-01-23T23:55:50.492Z,-5.33
